createdAt,value
2023-03-03T00:01:07.308Z,3.16
2023-03-03T00:03:34.650Z,3.19
2023-03-03T00:06:04.732Z,3.20
2023-03-03T00:08:32.697Z,3.19
2023-03-03T00:11:00.988Z,3.11
2023-03-03T00:13:29.016Z,3.05
2023-03-03T00:16:26.609Z,3.06
2023-03-03T00:18:54.966Z,3.10
2023-03-03T00:21:40.623Z,3.08
2023-03-03T00:24:38.337Z,3.07
2023-03-03T00:27:34.965Z,2.92
2023-03-03T00:30:02.517Z,2.87
2023-03-03T00:32:47.338Z,2.86
2023-03-03T00:35:27.545Z,2.86
2023-03-03T00:38:12.968Z,2.85
2023-03-03T00:40:41.133Z,2.70
2023-03-03T00:43:24.780Z,2.61
2023-03-03T00:45:57.064Z,2.63
2023-03-03T00:48:29.228Z,2.60
2023-03-03T00:51:01.666Z,2.64
2023-03-03T00:53:30.725Z,2.71
2023-03-03T00:55:58.183Z,2.69
2023-03-03T00:58:26.112Z,2.58
2023-03-03T01:00:56.787Z,2.69
2023-03-03T01:03:26.564Z,2.64
2023-03-03T01:05:54.718Z,2.58
2023-03-03T01:08:22.886Z,2.60
2023-03-03T01:10:54.109Z,2.56
2023-03-03T01:13:26.820Z,2.54
2023-03-03T01:15:54.310Z,2.47
2023-03-03T01:18:21.391Z,2.41
2023-03-03T01:20:48.412Z,2.29
2023-03-03T01:23:15.472Z,2.33
2023-03-03T01:25:42.744Z,2.29
2023-03-03T01:28:09.749Z,2.26
2023-03-03T01:30:36.869Z,2.24
2023-03-03T01:33:03.987Z,2.09
2023-03-03T01:35:31.490Z,2.17
2023-03-03T01:37:59.294Z,2.11
2023-03-03T01:40:30.876Z,2.03
2023-03-03T01:43:00.821Z,2.04
2023-03-03T01:45:30.010Z,2.01
2023-03-03T01:48:07.266Z,1.87
2023-03-03T01:50:53.816Z,1.98
2023-03-03T01:53:29.609Z,1.89
2023-03-03T01:55:57.004Z,1.92
2023-03-03T01:58:31.528Z,1.83
2023-03-03T02:01:04.031Z,1.82
2023-03-03T02:03:31.534Z,1.92
2023-03-03T02:06:16.227Z,1.85
2023-03-03T02:09:03.805Z,1.79
2023-03-03T02:11:33.109Z,1.76
2023-03-03T02:14:00.341Z,1.76
2023-03-03T02:16:27.800Z,1.74
2023-03-03T02:18:55.003Z,1.64
2023-03-03T02:21:27.870Z,1.69
2023-03-03T02:24:05.876Z,1.62
2023-03-03T02:26:37.661Z,1.67
2023-03-03T02:29:05.335Z,1.62
2023-03-03T02:31:33.257Z,1.51
2023-03-03T02:34:01.359Z,1.47
2023-03-03T02:36:32.494Z,1.49
2023-03-03T02:39:18.510Z,1.56
2023-03-03T02:42:10.180Z,1.46
2023-03-03T02:44:37.459Z,1.49
2023-03-03T02:47:04.715Z,1.48
2023-03-03T02:49:34.909Z,1.50
2023-03-03T02:52:05.828Z,1.50
2023-03-03T02:54:33.266Z,1.44
2023-03-03T02:57:01.608Z,1.38
2023-03-03T02:59:28.990Z,1.43
2023-03-03T03:01:56.571Z,1.43
2023-03-03T03:04:26.850Z,1.37
2023-03-03T03:06:55.409Z,1.50
2023-03-03T03:09:25.301Z,1.34
2023-03-03T03:11:52.719Z,1.33
2023-03-03T03:14:20.022Z,1.26
2023-03-03T03:16:47.046Z,1.24
2023-03-03T03:19:15.132Z,1.22
2023-03-03T03:21:42.202Z,1.16
2023-03-03T03:24:09.305Z,1.12
2023-03-03T03:26:36.363Z,1.22
2023-03-03T03:29:03.597Z,1.17
2023-03-03T03:31:30.756Z,1.18
2023-03-03T03:33:57.781Z,1.07
2023-03-03T03:36:24.845Z,1.09
2023-03-03T03:38:52.479Z,0.96
2023-03-03T03:41:19.557Z,1.00
2023-03-03T03:43:46.595Z,0.91
2023-03-03T03:46:13.685Z,1.00
2023-03-03T03:48:40.761Z,0.84
2023-03-03T03:51:07.833Z,0.93
2023-03-03T03:53:34.871Z,0.89
2023-03-03T03:56:02.016Z,0.74
2023-03-03T03:58:29.027Z,0.78
2023-03-03T04:00:56.302Z,0.71
2023-03-03T04:03:23.493Z,0.69
2023-03-03T04:05:53.933Z,0.72
2023-03-03T04:08:21.135Z,0.71
2023-03-03T04:10:48.288Z,0.63
2023-03-03T04:13:15.328Z,0.57
2023-03-03T04:15:42.593Z,0.70
2023-03-03T04:18:09.785Z,0.69
2023-03-03T04:20:36.876Z,0.61
2023-03-03T04:23:03.916Z,0.56
2023-03-03T04:25:31.387Z,0.51
2023-03-03T04:27:58.788Z,0.57
2023-03-03T04:30:27.042Z,0.56
2023-03-03T04:32:54.099Z,0.65
2023-03-03T04:35:21.176Z,0.68
2023-03-03T04:37:48.148Z,0.60
2023-03-03T04:40:16.561Z,0.62
2023-03-03T04:42:43.553Z,0.57
2023-03-03T04:45:11.450Z,0.55
2023-03-03T04:47:38.725Z,0.60
2023-03-03T04:50:06.590Z,0.49
2023-03-03T04:52:33.736Z,0.41
2023-03-03T04:55:00.772Z,0.41
2023-03-03T04:57:28.060Z,0.27
2023-03-03T04:59:55.148Z,0.34
2023-03-03T05:02:22.376Z,0.36
2023-03-03T05:04:49.470Z,0.28
2023-03-03T05:07:17.766Z,0.28
2023-03-03T05:09:44.908Z,0.28
2023-03-03T05:12:12.055Z,0.25
2023-03-03T05:14:39.064Z,0.25
2023-03-03T05:17:06.170Z,0.33
2023-03-03T05:19:35.056Z,0.23
2023-03-03T05:22:02.333Z,0.29
2023-03-03T05:24:29.761Z,0.35
2023-03-03T05:26:56.835Z,0.27
2023-03-03T05:29:23.933Z,0.33
2023-03-03T05:31:51.074Z,0.26
2023-03-03T05:34:18.230Z,0.28
2023-03-03T05:36:45.307Z,0.28
2023-03-03T05:39:12.298Z,0.29
2023-03-03T05:41:39.332Z,0.26
2023-03-03T05:44:06.646Z,0.28
2023-03-03T05:46:33.840Z,0.23
2023-03-03T05:49:01.086Z,0.29
2023-03-03T05:51:28.235Z,0.29
2023-03-03T05:53:56.523Z,0.28
2023-03-03T05:56:23.709Z,0.29
2023-03-03T05:58:50.796Z,0.24
2023-03-03T06:01:18.655Z,0.28
2023-03-03T06:03:45.760Z,0.27
2023-03-03T06:06:14.264Z,0.18
2023-03-03T06:08:41.245Z,0.31
2023-03-03T06:11:08.334Z,0.15
2023-03-03T06:13:36.272Z,0.18
2023-03-03T06:16:03.558Z,0.15
2023-03-03T06:18:30.752Z,0.15
2023-03-03T06:20:57.786Z,0.15
2023-03-03T06:23:25.026Z,0.23
2023-03-03T06:25:53.378Z,0.19
2023-03-03T06:28:20.739Z,0.14
2023-03-03T06:30:48.134Z,0.16
2023-03-03T06:33:15.549Z,0.19
2023-03-03T06:35:42.750Z,0.25
2023-03-03T06:38:09.762Z,0.30
2023-03-03T06:40:36.751Z,0.31
2023-03-03T06:43:04.408Z,0.33
2023-03-03T06:45:31.501Z,0.44
2023-03-03T06:47:58.810Z,0.49
2023-03-03T06:50:26.014Z,0.50
2023-03-03T06:53:11.757Z,0.56
2023-03-03T06:55:39.299Z,0.60
2023-03-03T06:58:16.645Z,0.69
2023-03-03T07:00:48.835Z,0.67
2023-03-03T07:03:19.578Z,0.72
2023-03-03T07:05:46.771Z,0.72
2023-03-03T07:08:18.410Z,0.74
2023-03-03T07:10:47.032Z,0.80
2023-03-03T07:13:18.809Z,0.82
2023-03-03T07:15:47.359Z,0.90
2023-03-03T07:18:55.407Z,0.93
2023-03-03T07:21:31.620Z,1.00
2023-03-03T07:24:00.408Z,1.07
2023-03-03T07:26:33.150Z,1.13
2023-03-03T07:29:28.996Z,1.13
2023-03-03T07:31:59.060Z,1.24
2023-03-03T07:34:48.635Z,1.24
2023-03-03T07:37:35.303Z,1.25
2023-03-03T07:40:25.479Z,1.25
2023-03-03T07:45:38.243Z,1.40
2023-03-03T07:48:19.346Z,1.48
2023-03-03T07:50:46.424Z,1.49
2023-03-03T07:53:27.767Z,1.54
2023-03-03T07:55:55.069Z,1.57
2023-03-03T07:58:40.224Z,1.58
2023-03-03T08:01:31.515Z,1.59
2023-03-03T08:03:58.697Z,1.74
2023-03-03T08:06:36.315Z,1.85
2023-03-03T08:09:20.291Z,1.76
2023-03-03T08:11:54.528Z,1.76
2023-03-03T08:14:32.077Z,1.91
2023-03-03T08:17:39.038Z,1.98
2023-03-03T08:21:05.109Z,2.06
2023-03-03T08:23:32.077Z,2.09
2023-03-03T08:25:59.044Z,2.05
2023-03-03T08:28:26.458Z,2.23
2023-03-03T08:31:05.592Z,2.27
2023-03-03T08:33:36.796Z,2.25
2023-03-03T08:36:04.099Z,2.32
2023-03-03T08:38:40.070Z,2.32
2023-03-03T08:41:07.386Z,2.49
2023-03-03T08:43:34.789Z,2.51
2023-03-03T08:46:05.608Z,2.64
2023-03-03T08:48:33.721Z,2.75
2023-03-03T08:51:00.998Z,2.58
2023-03-03T08:53:29.128Z,2.52
2023-03-03T08:55:56.311Z,2.63
2023-03-03T08:58:30.603Z,2.53
2023-03-03T09:01:02.004Z,2.62
2023-03-03T09:03:29.977Z,2.56
2023-03-03T09:05:57.017Z,2.54
2023-03-03T09:08:23.960Z,2.54
2023-03-03T09:10:51.708Z,2.77
2023-03-03T09:13:20.449Z,2.70
2023-03-03T09:15:51.390Z,2.89
2023-03-03T09:18:33.174Z,2.88
2023-03-03T09:21:00.384Z,2.95
2023-03-03T09:23:36.955Z,3.11
2023-03-03T09:26:30.946Z,3.04
2023-03-03T09:29:17.160Z,3.08
2023-03-03T09:31:52.849Z,3.30
2023-03-03T09:34:27.960Z,3.48
2023-03-03T09:36:56.059Z,3.55
2023-03-03T09:39:26.929Z,3.45
2023-03-03T09:42:50.819Z,3.44
2023-03-03T09:45:51.147Z,3.64
2023-03-03T09:48:50.573Z,3.79
2023-03-03T09:51:35.309Z,3.59
2023-03-03T09:54:18.177Z,3.65
2023-03-03T09:57:05.653Z,3.60
2023-03-03T09:59:51.839Z,3.77
2023-03-03T10:02:52.593Z,4.00
2023-03-03T10:05:52.343Z,3.95
2023-03-03T10:08:43.996Z,3.98
2023-03-03T10:11:29.255Z,3.97
2023-03-03T10:14:05.977Z,3.92
2023-03-03T10:16:53.186Z,4.34
2023-03-03T10:20:11.803Z,4.47
2023-03-03T10:23:21.642Z,4.59
2023-03-03T10:26:14.392Z,4.80
2023-03-03T10:29:04.631Z,4.71
2023-03-03T10:32:14.534Z,4.70
2023-03-03T10:35:14.276Z,4.95
2023-03-03T10:38:14.942Z,5.06
2023-03-03T10:41:18.176Z,5.52
2023-03-03T10:44:28.501Z,5.29
2023-03-03T10:47:35.804Z,5.55
2023-03-03T10:50:51.818Z,5.64
2023-03-03T10:53:23.900Z,5.81
2023-03-03T10:56:10.943Z,6.14
2023-03-03T10:58:45.953Z,5.73
2023-03-03T11:01:36.192Z,6.02
2023-03-03T11:04:41.349Z,6.28
2023-03-03T11:07:49.826Z,6.54
2023-03-03T11:10:31.155Z,6.74
2023-03-03T11:13:21.245Z,6.69
2023-03-03T11:17:05.655Z,7.05
2023-03-03T11:20:02.648Z,7.09
2023-03-03T11:23:13.531Z,6.82
2023-03-03T11:25:53.651Z,7.48
2023-03-03T11:28:26.553Z,7.38
2023-03-03T11:31:31.805Z,7.26
2023-03-03T11:34:14.689Z,7.71
2023-03-03T11:36:55.370Z,7.81
2023-03-03T11:39:27.815Z,7.47
2023-03-03T11:42:26.501Z,7.55
2023-03-03T11:45:03.911Z,8.00
2023-03-03T11:47:48.956Z,8.19
2023-03-03T11:50:26.537Z,8.06
2023-03-03T11:53:21.080Z,8.08
2023-03-03T11:56:13.957Z,8.35
2023-03-03T11:58:49.834Z,8.43
2023-03-03T12:01:36.054Z,8.69
2023-03-03T12:04:56.209Z,8.58
2023-03-03T12:07:55.361Z,8.46
2023-03-03T12:10:28.937Z,8.48
2023-03-03T12:13:11.420Z,8.49
2023-03-03T12:16:09.444Z,8.47
2023-03-03T12:18:51.139Z,8.72
2023-03-03T12:21:48.894Z,8.96
2023-03-03T12:25:07.469Z,8.97
2023-03-03T12:28:06.828Z,8.74
2023-03-03T12:30:38.880Z,9.22
2023-03-03T12:33:54.205Z,9.23
2023-03-03T12:37:23.752Z,8.63
2023-03-03T12:40:31.357Z,9.19
2023-03-03T12:43:13.643Z,9.13
2023-03-03T12:46:05.677Z,8.83
2023-03-03T12:48:44.177Z,9.53
2023-03-03T12:51:16.583Z,9.40
2023-03-03T12:53:56.405Z,9.47
2023-03-03T12:56:55.829Z,9.15
2023-03-03T12:59:37.665Z,8.83
2023-03-03T13:02:32.515Z,9.56
2023-03-03T13:05:20.910Z,10.48
2023-03-03T13:08:31.905Z,9.92
2023-03-03T13:11:43.347Z,9.95
2023-03-03T13:15:02.866Z,9.99
2023-03-03T13:17:43.198Z,10.13
2023-03-03T13:20:30.958Z,9.92
2023-03-03T13:23:22.271Z,10.16
2023-03-03T13:26:00.936Z,9.98
2023-03-03T13:29:03.008Z,9.55
2023-03-03T13:31:55.715Z,10.03
2023-03-03T13:34:43.287Z,10.33
2023-03-03T13:37:23.130Z,10.14
2023-03-03T13:39:53.217Z,10.53
2023-03-03T13:42:35.016Z,10.08
2023-03-03T13:45:13.509Z,9.90
2023-03-03T13:48:27.997Z,10.14
2023-03-03T13:51:02.344Z,9.74
2023-03-03T13:53:46.680Z,10.19
2023-03-03T13:56:23.580Z,10.79
2023-03-03T13:59:02.250Z,10.23
2023-03-03T14:01:56.552Z,9.98
2023-03-03T14:04:33.001Z,10.56
2023-03-03T14:07:14.762Z,10.39
2023-03-03T14:10:01.260Z,10.82
2023-03-03T14:12:39.542Z,11.22
2023-03-03T14:15:11.822Z,10.85
2023-03-03T14:18:15.661Z,10.54
2023-03-03T14:20:54.340Z,10.41
2023-03-03T14:23:34.182Z,10.27
2023-03-03T14:26:03.978Z,10.32
2023-03-03T14:28:44.267Z,10.25
2023-03-03T14:31:40.711Z,10.61
2023-03-03T14:34:38.708Z,10.63
2023-03-03T14:37:29.521Z,10.92
2023-03-03T14:40:15.218Z,10.77
2023-03-03T14:42:56.466Z,10.88
2023-03-03T14:45:42.982Z,10.35
2023-03-03T14:48:20.333Z,9.94
2023-03-03T14:51:39.838Z,10.72
2023-03-03T14:54:15.736Z,11.30
2023-03-03T14:57:06.284Z,11.37
2023-03-03T14:59:33.834Z,11.09
2023-03-03T15:02:18.894Z,11.36
2023-03-03T15:04:48.941Z,10.93
2023-03-03T15:07:37.324Z,11.30
2023-03-03T15:10:07.731Z,10.34
2023-03-03T15:12:40.801Z,10.80
2023-03-03T15:15:18.558Z,11.31
2023-03-03T15:18:02.144Z,11.25
2023-03-03T15:20:59.639Z,11.16
2023-03-03T15:23:56.346Z,10.94
2023-03-03T15:26:54.852Z,11.08
2023-03-03T15:30:06.976Z,10.58
2023-03-03T15:32:45.211Z,11.00
2023-03-03T15:35:32.436Z,10.95
2023-03-03T15:38:16.085Z,10.61
2023-03-03T15:40:49.525Z,10.28
2023-03-03T15:43:40.652Z,10.46
2023-03-03T15:46:20.363Z,10.25
2023-03-03T15:49:10.156Z,10.31
2023-03-03T15:52:25.960Z,10.21
2023-03-03T15:55:08.858Z,10.04
2023-03-03T15:57:54.757Z,9.98
2023-03-03T16:00:33.504Z,10.17
2023-03-03T16:03:13.111Z,10.04
2023-03-03T16:05:53.500Z,10.11
2023-03-03T16:08:31.281Z,10.03
2023-03-03T16:11:16.400Z,9.77
2023-03-03T16:14:25.823Z,9.59
2023-03-03T16:17:11.282Z,9.29
2023-03-03T16:19:45.342Z,9.67
2023-03-03T16:22:28.940Z,9.37
2023-03-03T16:25:18.827Z,9.42
2023-03-03T16:27:55.849Z,9.32
2023-03-03T16:30:40.059Z,9.08
2023-03-03T16:33:44.300Z,8.93
2023-03-03T16:36:26.423Z,8.87
2023-03-03T16:39:47.524Z,8.64
2023-03-03T16:42:33.249Z,8.72
2023-03-03T16:45:27.471Z,8.67
2023-03-03T16:48:36.660Z,8.48
2023-03-03T16:51:53.243Z,8.33
2023-03-03T16:54:57.763Z,8.22
2023-03-03T16:57:34.877Z,8.17
2023-03-03T17:00:29.099Z,7.99
2023-03-03T17:03:36.900Z,7.87
2023-03-03T17:06:19.327Z,7.70
2023-03-03T17:09:31.524Z,7.64
2023-03-03T17:12:54.097Z,7.48
2023-03-03T17:15:48.195Z,7.45
2023-03-03T17:18:46.402Z,7.27
2023-03-03T17:21:44.242Z,7.23
2023-03-03T17:24:26.891Z,7.16
2023-03-03T17:27:22.579Z,7.07
2023-03-03T17:30:14.037Z,6.96
2023-03-03T17:32:44.320Z,6.87
2023-03-03T17:35:20.618Z,6.73
2023-03-03T17:38:06.072Z,6.68
2023-03-03T17:40:52.494Z,6.53
2023-03-03T17:43:43.546Z,6.43
2023-03-03T17:46:27.073Z,6.39
2023-03-03T17:49:30.355Z,6.24
2023-03-03T17:52:53.238Z,6.21
2023-03-03T17:55:38.368Z,6.10
2023-03-03T17:58:45.153Z,6.05
2023-03-03T18:01:13.194Z,6.06
2023-03-03T18:04:02.756Z,5.99
2023-03-03T18:07:14.207Z,5.90
2023-03-03T18:10:06.665Z,5.82
2023-03-03T18:13:11.422Z,5.73
2023-03-03T18:16:11.963Z,5.66
2023-03-03T18:18:58.274Z,5.57
2023-03-03T18:21:37.105Z,5.53
2023-03-03T18:24:33.870Z,5.37
2023-03-03T18:27:40.119Z,5.21
2023-03-03T18:30:54.700Z,5.30
2023-03-03T18:33:45.134Z,5.16
2023-03-03T18:36:52.376Z,5.10
2023-03-03T18:39:46.448Z,5.01
2023-03-03T18:42:16.455Z,4.93
2023-03-03T18:44:45.172Z,4.91
2023-03-03T18:47:12.797Z,4.83
2023-03-03T18:49:58.089Z,4.71
2023-03-03T18:52:37.888Z,4.66
2023-03-03T18:55:13.685Z,4.68
2023-03-03T18:57:44.539Z,4.69
2023-03-03T19:00:32.077Z,4.56
2023-03-03T19:03:01.862Z,4.45
2023-03-03T19:05:49.698Z,4.49
2023-03-03T19:08:25.936Z,4.45
2023-03-03T19:11:02.880Z,4.36
2023-03-03T19:13:35.793Z,4.30
2023-03-03T19:16:06.433Z,4.25
2023-03-03T19:18:56.633Z,4.17
2023-03-03T19:21:31.657Z,4.18
2023-03-03T19:24:04.753Z,4.11
2023-03-03T19:27:06.563Z,4.06
2023-03-03T19:29:45.892Z,3.97
2023-03-03T19:32:44.304Z,3.98
2023-03-03T19:36:07.386Z,3.92
2023-03-03T19:38:55.735Z,3.81
2023-03-03T19:41:34.895Z,3.69
2023-03-03T19:44:23.766Z,3.74
2023-03-03T19:47:04.452Z,3.73
2023-03-03T19:49:49.760Z,3.78
2023-03-03T19:52:49.054Z,3.64
2023-03-03T19:55:32.207Z,3.59
2023-03-03T19:58:17.710Z,3.60
2023-03-03T20:01:37.265Z,3.48
2023-03-03T20:04:35.760Z,3.52
2023-03-03T20:07:35.714Z,3.42
2023-03-03T20:10:14.701Z,3.35
2023-03-03T20:13:09.868Z,3.22
2023-03-03T20:15:53.110Z,3.26
2023-03-03T20:18:58.968Z,3.46
2023-03-03T20:21:49.626Z,3.39
2023-03-03T20:24:48.911Z,3.25
2023-03-03T20:27:21.088Z,3.26
2023-03-03T20:30:11.556Z,3.25
2023-03-03T20:33:23.899Z,3.22
2023-03-03T20:36:19.916Z,3.11
2023-03-03T20:38:58.828Z,3.04
2023-03-03T20:41:35.263Z,3.00
2023-03-03T20:44:11.376Z,3.02
2023-03-03T20:46:47.729Z,2.97
2023-03-03T20:49:44.994Z,2.91
2023-03-03T20:52:30.362Z,2.90
2023-03-03T20:55:23.341Z,2.91
2023-03-03T20:58:24.701Z,2.87
2023-03-03T21:01:12.109Z,2.79
2023-03-03T21:03:43.051Z,2.76
2023-03-03T21:06:19.429Z,2.75
2023-03-03T21:08:56.987Z,2.66
2023-03-03T21:11:32.895Z,2.67
2023-03-03T21:14:14.468Z,2.58
2023-03-03T21:16:42.455Z,2.50
2023-03-03T21:19:25.827Z,2.35
2023-03-03T21:21:54.974Z,2.33
2023-03-03T21:24:22.715Z,2.34
2023-03-03T21:26:59.174Z,2.23
2023-03-03T21:29:32.637Z,2.26
2023-03-03T21:32:02.086Z,2.19
2023-03-03T21:34:34.070Z,2.13
2023-03-03T21:37:07.404Z,2.10
2023-03-03T21:39:38.488Z,2.03
2023-03-03T21:42:14.468Z,2.07
2023-03-03T21:44:49.897Z,1.95
2023-03-03T21:47:19.864Z,1.94
2023-03-03T21:49:49.921Z,1.83
2023-03-03T21:52:20.777Z,1.76
2023-03-03T21:54:50.768Z,1.83
2023-03-03T21:57:18.473Z,1.77
2023-03-03T21:59:45.577Z,1.65
2023-03-03T22:02:12.623Z,1.66
2023-03-03T22:04:39.704Z,1.54
2023-03-03T22:07:07.165Z,1.51
2023-03-03T22:09:35.169Z,1.47
2023-03-03T22:12:02.488Z,1.45
2023-03-03T22:14:29.615Z,1.52
2023-03-03T22:16:56.776Z,1.45
2023-03-03T22:19:23.898Z,1.40
2023-03-03T22:21:51.003Z,1.37
2023-03-03T22:24:18.807Z,1.36
2023-03-03T22:26:45.887Z,1.33
2023-03-03T22:29:13.026Z,1.20
2023-03-03T22:31:40.181Z,1.18
2023-03-03T22:34:07.373Z,1.15
2023-03-03T22:36:34.419Z,1.21
2023-03-03T22:39:02.059Z,1.14
2023-03-03T22:41:29.108Z,1.29
2023-03-03T22:43:56.094Z,1.11
2023-03-03T22:46:23.186Z,1.13
2023-03-03T22:48:50.296Z,1.09
2023-03-03T22:51:18.439Z,1.12
2023-03-03T22:53:45.407Z,0.86
2023-03-03T22:56:12.409Z,0.96
2023-03-03T22:58:39.622Z,0.98
2023-03-03T23:01:06.622Z,0.86
2023-03-03T23:03:33.675Z,0.90
2023-03-03T23:06:00.744Z,0.87
2023-03-03T23:08:27.835Z,0.76
2023-03-03T23:10:54.816Z,0.75
2023-03-03T23:13:22.016Z,0.64
2023-03-03T23:15:49.014Z,0.62
2023-03-03T23:18:16.067Z,0.61
2023-03-03T23:20:45.967Z,0.57
2023-03-03T23:23:13.185Z,0.74
2023-03-03T23:25:40.204Z,0.48
2023-03-03T23:28:07.655Z,0.54
2023-03-03T23:30:35.095Z,0.44
2023-03-03T23:33:02.140Z,0.36
2023-03-03T23:35:29.136Z,0.33
2023-03-03T23:37:56.118Z,0.48
2023-03-03T23:40:23.286Z,0.47
2023-03-03T23:42:50.353Z,0.52
2023-03-03T23:45:17.800Z,0.49
2023-03-03T23:47:44.951Z,0.41
2023-03-03T23:50:13.322Z,0.43
2023-03-03T23:52:40.681Z,0.36
2023-03-03T23:55:08.524Z,0.25
2023-03-03T23:57:35.695Z,0.31
